sensor_id;sensor_type;location;lat;lon;timestamp;pressure;altitude;pressure_sealevel;temperature;humidity
68594;BME280;55563;52.416;13.548;2022-12-26T00:01:04;100650.88;;;8.08;100.00
68594;BME280;55563;52.416;13.548;2022-12-26T00:03:05;100644.84;;;8.08;100.00
68594;BME280;55563;52.416;13.548;2022-12-26T00:05:06;100632.53;;;8.08;100.00
68594;BME280;55563;52.416;13.548;2022-12-26T00:07:07;100641.19;;;8.09;100.00
68594;BME280;55563;52.416;13.548;2022-12-26T00:09:08;100635.72;;;8.10;100.00
68594;BME280;55563;52.416;13.548;2022-12-26T00:11:13;100638.56;;;8.09;100.00
68594;BME280;55563;52.416;13.548;2022-12-26T00:13:14;100644.91;;;8.13;100.00
68594;BME280;55563;52.416;13.548;2022-12-26T00:15:15;100639.44;;;8.14;100.00
68594;BME280;55563;52.416;13.548;2022-12-26T00:17:16;100638.72;;;8.19;100.00
68594;BME280;55563;52.416;13.548;2022-12-26T00:19:17;100634.28;;;8.19;100.00
68594;BME280;55563;52.416;13.548;2022-12-26T00:21:18;100639.50;;;8.19;100.00
68594;BME280;55563;52.416;13.548;2022-12-26T00:23:19;100634.81;;;8.21;100.00
68594;BME280;55563;52.416;13.548;2022-12-26T00:25:20;100632.25;;;8.26;100.00
68594;BME280;55563;52.416;13.548;2022-12-26T00:27:21;100627.41;;;8.35;100.00
68594;BME280;55563;52.416;13.548;2022-12-26T00:29:21;100621.34;;;8.29;100.00
68594;BME280;55563;52.416;13.548;2022-12-26T00:31:25;100618.47;;;8.31;100.00
68594;BME280;55563;52.416;13.548;2022-12-26T00:33:26;100619.25;;;8.31;100.00
68594;BME280;55563;52.416;13.548;2022-12-26T00:35:26;100625.75;;;8.29;100.00
68594;BME280;55563;52.416;13.548;2022-12-26T00:37:28;100637.50;;;8.26;100.00
68594;BME280;55563;52.416;13.548;2022-12-26T00:39:28;100634.72;;;8.33;100.00
68594;BME280;55563;52.416;13.548;2022-12-26T00:41:29;100634.28;;;8.41;100.00
68594;BME280;55563;52.416;13.548;2022-12-26T00:43:30;100626.44;;;8.41;100.00
68594;BME280;55563;52.416;13.548;2022-12-26T00:45:31;100613.91;;;8.43;100.00
68594;BME280;55563;52.416;13.548;2022-12-26T00:47:32;100614.25;;;8.52;100.00
68594;BME280;55563;52.416;13.548;2022-12-26T00:49:33;100616.25;;;8.45;100.00
68594;BME280;55563;52.416;13.548;2022-12-26T00:51:33;100606.09;;;8.48;100.00
68594;BME280;55563;52.416;13.548;2022-12-26T00:53:34;100615.59;;;8.54;100.00
68594;BME280;55563;52.416;13.548;2022-12-26T00:55:35;100605.66;;;8.56;100.00
68594;BME280;55563;52.416;13.548;2022-12-26T00:57:55;100616.09;;;8.51;100.00
68594;BME280;55563;52.416;13.548;2022-12-26T00:59:56;100612.44;;;8.52;100.00
68594;BME280;55563;52.416;13.548;2022-12-26T01:01:57;100607.19;;;8.52;100.00
68594;BME280;55563;52.416;13.548;2022-12-26T01:03:58;100598.84;;;8.55;100.00
68594;BME280;55563;52.416;13.548;2022-12-26T01:06:01;100596.09;;;8.45;100.00
68594;BME280;55563;52.416;13.548;2022-12-26T01:08:01;100594.41;;;8.56;100.00
68594;BME280;55563;52.416;13.548;2022-12-26T01:10:04;100599.88;;;8.54;100.00
68594;BME280;55563;52.416;13.548;2022-12-26T01:12:05;100599.94;;;8.59;100.00
68594;BME280;55563;52.416;13.548;2022-12-26T01:14:07;100585.44;;;8.52;100.00
68594;BME280;55563;52.416;13.548;2022-12-26T01:16:09;100583.63;;;8.52;100.00
68594;BME280;55563;52.416;13.548;2022-12-26T01:18:09;100583.97;;;8.61;100.00
68594;BME280;55563;52.416;13.548;2022-12-26T01:20:10;100585.97;;;8.54;100.00
68594;BME280;55563;52.416;13.548;2022-12-26T01:22:11;100583.06;;;8.50;100.00
68594;BME280;55563;52.416;13.548;2022-12-26T01:24:12;100590.97;;;8.55;100.00
68594;BME280;55563;52.416;13.548;2022-12-26T01:26:13;100587.03;;;8.53;100.00
68594;BME280;55563;52.416;13.548;2022-12-26T01:28:14;100579.53;;;8.61;100.00
68594;BME280;55563;52.416;13.548;2022-12-26T01:30:14;100580.84;;;8.64;100.00
68594;BME280;55563;52.416;13.548;2022-12-26T01:32:15;100573.25;;;8.62;100.00
68594;BME280;55563;52.416;13.548;2022-12-26T01:34:16;100580.78;;;8.59;100.00
68594;BME280;55563;52.416;13.548;2022-12-26T01:36:17;100580.28;;;8.57;100.00
68594;BME280;55563;52.416;13.548;2022-12-26T01:38:18;100589.72;;;8.58;100.00
68594;BME280;55563;52.416;13.548;2022-12-26T01:40:19;100579.75;;;8.60;100.00
68594;BME280;55563;52.416;13.548;2022-12-26T01:42:23;100566.94;;;8.58;100.00
68594;BME280;55563;52.416;13.548;2022-12-26T01:44:54;100566.13;;;8.58;100.00
68594;BME280;55563;52.416;13.548;2022-12-26T01:46:55;100558.81;;;8.60;100.00
68594;BME280;55563;52.416;13.548;2022-12-26T01:49:00;100566.44;;;8.61;100.00
68594;BME280;55563;52.416;13.548;2022-12-26T01:51:03;100564.59;;;8.62;100.00
68594;BME280;55563;52.416;13.548;2022-12-26T01:53:13;100558.06;;;8.64;100.00
68594;BME280;55563;52.416;13.548;2022-12-26T01:55:18;100576.16;;;8.66;100.00
68594;BME280;55563;52.416;13.548;2022-12-26T01:57:23;100569.38;;;8.70;100.00
68594;BME280;55563;52.416;13.548;2022-12-26T01:59:29;100568.31;;;8.66;100.00
68594;BME280;55563;52.416;13.548;2022-12-26T02:01:32;100546.25;;;8.62;100.00
68594;BME280;55563;52.416;13.548;2022-12-26T02:03:36;100551.97;;;8.59;100.00
68594;BME280;55563;52.416;13.548;2022-12-26T02:05:59;100560.09;;;8.57;100.00
68594;BME280;55563;52.416;13.548;2022-12-26T02:08:18;100566.72;;;8.65;100.00
68594;BME280;55563;52.416;13.548;2022-12-26T02:10:22;100552.41;;;8.72;100.00
68594;BME280;55563;52.416;13.548;2022-12-26T02:12:29;100560.09;;;8.84;100.00
68594;BME280;55563;52.416;13.548;2022-12-26T02:14:31;100546.38;;;8.72;100.00
68594;BME280;55563;52.416;13.548;2022-12-26T02:16:34;100548.19;;;8.71;100.00
68594;BME280;55563;52.416;13.548;2022-12-26T02:18:35;100553.47;;;8.77;100.00
68594;BME280;55563;52.416;13.548;2022-12-26T02:20:46;100551.59;;;8.72;100.00
68594;BME280;55563;52.416;13.548;2022-12-26T02:35:19;100544.81;;;8.76;100.00
68594;BME280;55563;52.416;13.548;2022-12-26T02:37:37;100533.09;;;8.84;100.00
68594;BME280;55563;52.416;13.548;2022-12-26T02:40:06;100543.03;;;8.82;100.00
68594;BME280;55563;52.416;13.548;2022-12-26T02:44:38;100534.22;;;8.93;100.00
68594;BME280;55563;52.416;13.548;2022-12-26T02:49:48;100528.69;;;8.89;100.00
68594;BME280;55563;52.416;13.548;2022-12-26T02:52:17;100520.31;;;8.87;100.00
68594;BME280;55563;52.416;13.548;2022-12-26T02:54:51;100520.31;;;8.92;100.00
68594;BME280;55563;52.416;13.548;2022-12-26T02:57:20;100523.72;;;8.93;100.00
68594;BME280;55563;52.416;13.548;2022-12-26T03:00:10;100535.41;;;9.12;100.00
68594;BME280;55563;52.416;13.548;2022-12-26T03:02:41;100542.16;;;9.03;100.00
68594;BME280;55563;52.416;13.548;2022-12-26T03:05:03;100547.41;;;9.03;100.00
68594;BME280;55563;52.416;13.548;2022-12-26T03:07:28;100539.31;;;9.04;100.00
68594;BME280;55563;52.416;13.548;2022-12-26T03:09:52;100537.47;;;9.05;100.00
68594;BME280;55563;52.416;13.548;2022-12-26T03:14:34;100537.81;;;9.13;100.00
68594;BME280;55563;52.416;13.548;2022-12-26T03:16:38;100541.72;;;9.11;100.00
68594;BME280;55563;52.416;13.548;2022-12-26T03:19:02;100532.00;;;9.06;100.00
68594;BME280;55563;52.416;13.548;2022-12-26T03:21:06;100541.47;;;9.12;100.00
68594;BME280;55563;52.416;13.548;2022-12-26T03:23:11;100538.78;;;9.07;100.00
68594;BME280;55563;52.416;13.548;2022-12-26T03:25:18;100542.22;;;9.08;100.00
68594;BME280;55563;52.416;13.548;2022-12-26T03:27:59;100536.97;;;9.08;100.00
68594;BME280;55563;52.416;13.548;2022-12-26T03:30:00;100533.56;;;9.07;100.00
68594;BME280;55563;52.416;13.548;2022-12-26T03:32:21;100549.25;;;9.02;100.00
68594;BME280;55563;52.416;13.548;2022-12-26T03:34:22;100549.28;;;9.07;100.00
68594;BME280;55563;52.416;13.548;2022-12-26T03:39:04;100543.00;;;9.08;100.00
68594;BME280;55563;52.416;13.548;2022-12-26T03:41:16;100541.47;;;9.12;100.00
68594;BME280;55563;52.416;13.548;2022-12-26T03:44:08;100540.94;;;9.10;100.00
68594;BME280;55563;52.416;13.548;2022-12-26T03:47:00;100530.66;;;9.04;100.00
68594;BME280;55563;52.416;13.548;2022-12-26T03:49:28;100527.59;;;9.17;100.00
68594;BME280;55563;52.416;13.548;2022-12-26T03:52:03;100533.31;;;9.09;100.00
68594;BME280;55563;52.416;13.548;2022-12-26T03:54:36;100532.31;;;9.15;100.00
68594;BME280;55563;52.416;13.548;2022-12-26T03:57:05;100543.50;;;9.05;100.00
68594;BME280;55563;52.416;13.548;2022-12-26T03:59:30;100543.56;;;9.10;100.00
68594;BME280;55563;52.416;13.548;2022-12-26T04:01:54;100548.50;;;9.07;100.00
68594;BME280;55563;52.416;13.548;2022-12-26T04:04:17;100558.22;;;9.06;100.00
68594;BME280;55563;52.416;13.548;2022-12-26T04:06:48;100543.75;;;9.04;100.00
68594;BME280;55563;52.416;13.548;2022-12-26T04:09:15;100550.59;;;9.05;100.00
68594;BME280;55563;52.416;13.548;2022-12-26T04:11:40;100553.19;;;9.05;100.00
68594;BME280;55563;52.416;13.548;2022-12-26T04:14:09;100562.16;;;9.09;100.00
68594;BME280;55563;52.416;13.548;2022-12-26T04:16:36;100582.84;;;9.05;100.00
68594;BME280;55563;52.416;13.548;2022-12-26T04:19:05;100583.13;;;9.09;100.00
68594;BME280;55563;52.416;13.548;2022-12-26T04:21:34;100566.34;;;9.10;100.00
68594;BME280;55563;52.416;13.548;2022-12-26T04:24:04;100567.91;;;9.06;100.00
68594;BME280;55563;52.416;13.548;2022-12-26T04:26:33;100560.50;;;9.03;100.00
68594;BME280;55563;52.416;13.548;2022-12-26T04:28:55;100562.38;;;9.07;100.00
68594;BME280;55563;52.416;13.548;2022-12-26T04:34:22;100574.13;;;9.00;100.00
68594;BME280;55563;52.416;13.548;2022-12-26T04:36:56;100561.31;;;9.03;100.00
68594;BME280;55563;52.416;13.548;2022-12-26T04:39:19;100573.44;;;9.09;100.00
68594;BME280;55563;52.416;13.548;2022-12-26T04:41:44;100572.34;;;9.05;100.00
68594;BME280;55563;52.416;13.548;2022-12-26T04:44:06;100562.09;;;9.04;100.00
68594;BME280;55563;52.416;13.548;2022-12-26T04:46:12;100563.66;;;9.00;100.00
68594;BME280;55563;52.416;13.548;2022-12-26T04:48:13;100569.97;;;9.04;100.00
68594;BME280;55563;52.416;13.548;2022-12-26T04:50:34;100564.72;;;9.04;100.00
68594;BME280;55563;52.416;13.548;2022-12-26T04:52:35;100577.03;;;9.03;100.00
68594;BME280;55563;52.416;13.548;2022-12-26T04:54:56;100569.97;;;9.04;100.00
68594;BME280;55563;52.416;13.548;2022-12-26T04:56:57;100570.94;;;8.98;100.00
68594;BME280;55563;52.416;13.548;2022-12-26T04:58:58;100569.41;;;8.97;100.00
68594;BME280;55563;52.416;13.548;2022-12-26T05:00:59;100576.25;;;9.03;100.00
68594;BME280;55563;52.416;13.548;2022-12-26T05:03:19;100581.94;;;8.95;100.00
68594;BME280;55563;52.416;13.548;2022-12-26T05:05:42;100582.47;;;8.92;100.00
68594;BME280;55563;52.416;13.548;2022-12-26T05:08:04;100576.16;;;8.93;100.00
68594;BME280;55563;52.416;13.548;2022-12-26T05:10:26;100585.19;;;9.07;100.00
68594;BME280;55563;52.416;13.548;2022-12-26T05:12:27;100582.28;;;9.03;100.00
68594;BME280;55563;52.416;13.548;2022-12-26T05:14:28;100581.94;;;8.95;100.00
68594;BME280;55563;52.416;13.548;2022-12-26T05:16:31;100578.59;;;8.99;100.00
68594;BME280;55563;52.416;13.548;2022-12-26T05:18:51;100592.72;;;8.98;100.00
68594;BME280;55563;52.416;13.548;2022-12-26T05:21:13;100595.91;;;9.00;100.00
68594;BME280;55563;52.416;13.548;2022-12-26T05:23:37;100604.66;;;9.11;100.00
68594;BME280;55563;52.416;13.548;2022-12-26T05:26:00;100600.22;;;9.16;100.00
68594;BME280;55563;52.416;13.548;2022-12-26T05:28:21;100601.75;;;9.12;100.00
68594;BME280;55563;52.416;13.548;2022-12-26T05:30:43;100599.41;;;9.11;100.00
68594;BME280;55563;52.416;13.548;2022-12-26T05:32:46;100601.00;;;9.17;100.00
68594;BME280;55563;52.416;13.548;2022-12-26T05:35:07;100598.09;;;9.13;100.00
68594;BME280;55563;52.416;13.548;2022-12-26T05:37:07;100598.09;;;9.13;100.00
68594;BME280;55563;52.416;13.548;2022-12-26T05:39:08;100605.72;;;9.15;100.00
68594;BME280;55563;52.416;13.548;2022-12-26T05:41:09;100602.31;;;9.14;100.00
68594;BME280;55563;52.416;13.548;2022-12-26T05:43:10;100603.44;;;9.24;100.00
68594;BME280;55563;52.416;13.548;2022-12-26T05:45:10;100595.81;;;9.22;100.00
68594;BME280;55563;52.416;13.548;2022-12-26T05:47:11;100599.78;;;9.25;100.00
68594;BME280;55563;52.416;13.548;2022-12-26T05:49:12;100597.69;;;9.27;100.00
68594;BME280;55563;52.416;13.548;2022-12-26T05:51:13;100594.78;;;9.23;100.00
68594;BME280;55563;52.416;13.548;2022-12-26T05:53:13;100586.13;;;9.23;100.00
68594;BME280;55563;52.416;13.548;2022-12-26T05:55:14;100610.03;;;9.31;100.00
68594;BME280;55563;52.416;13.548;2022-12-26T05:57:15;100603.25;;;9.30;100.00
68594;BME280;55563;52.416;13.548;2022-12-26T05:59:16;100601.16;;;9.32;100.00
68594;BME280;55563;52.416;13.548;2022-12-26T06:01:19;100599.56;;;9.31;100.00
68594;BME280;55563;52.416;13.548;2022-12-26T06:03:20;100599.06;;;9.34;100.00
68594;BME280;55563;52.416;13.548;2022-12-26T06:05:21;100602.22;;;9.36;100.00
68594;BME280;55563;52.416;13.548;2022-12-26T06:07:21;100594.16;;;9.43;100.00
68594;BME280;55563;52.416;13.548;2022-12-26T06:09:22;100599.59;;;9.36;100.00
68594;BME280;55563;52.416;13.548;2022-12-26T06:11:24;100609.00;;;9.32;100.00
68594;BME280;55563;52.416;13.548;2022-12-26T06:13:25;100607.97;;;9.33;100.00
68594;BME280;55563;52.416;13.548;2022-12-26T06:15:26;100608.78;;;9.34;100.00
68594;BME280;55563;52.416;13.548;2022-12-26T06:17:27;100603.06;;;9.42;100.00
68594;BME280;55563;52.416;13.548;2022-12-26T06:19:47;100604.81;;;9.31;100.00
68594;BME280;55563;52.416;13.548;2022-12-26T06:21:49;100603.72;;;9.27;100.00
68594;BME280;55563;52.416;13.548;2022-12-26T06:23:50;100603.47;;;9.29;100.00
68594;BME280;55563;52.416;13.548;2022-12-26T06:25:53;100604.56;;;9.33;100.00
68594;BME280;55563;52.416;13.548;2022-12-26T06:27:54;100596.94;;;9.31;100.00
68594;BME280;55563;52.416;13.548;2022-12-26T06:29:55;100594.81;;;9.28;100.00
68594;BME280;55563;52.416;13.548;2022-12-26T06:31:56;100595.63;;;9.29;100.00
68594;BME280;55563;52.416;13.548;2022-12-26T06:33:57;100599.03;;;9.29;100.00
68594;BME280;55563;52.416;13.548;2022-12-26T06:36:03;100596.41;;;9.29;100.00
68594;BME280;55563;52.416;13.548;2022-12-26T06:38:04;100614.25;;;9.32;100.00
68594;BME280;55563;52.416;13.548;2022-12-26T06:40:05;100623.94;;;9.32;100.00
68594;BME280;55563;52.416;13.548;2022-12-26T06:42:06;100629.25;;;9.37;100.00
68594;BME280;55563;52.416;13.548;2022-12-26T06:44:08;100631.63;;;9.38;100.00
68594;BME280;55563;52.416;13.548;2022-12-26T06:46:13;100637.91;;;9.37;100.00
68594;BME280;55563;52.416;13.548;2022-12-26T06:48:13;100644.19;;;9.36;100.00
68594;BME280;55563;52.416;13.548;2022-12-26T06:50:14;100642.59;;;9.35;100.00
68594;BME280;55563;52.416;13.548;2022-12-26T06:52:15;100638.41;;;9.34;100.00
68594;BME280;55563;52.416;13.548;2022-12-26T06:54:16;100643.94;;;9.38;100.00
68594;BME280;55563;52.416;13.548;2022-12-26T06:56:19;100652.06;;;9.36;100.00
68594;BME280;55563;52.416;13.548;2022-12-26T06:58:20;100654.72;;;9.41;100.00
68594;BME280;55563;52.416;13.548;2022-12-26T07:00:21;100659.69;;;9.38;100.00
68594;BME280;55563;52.416;13.548;2022-12-26T07:02:22;100667.28;;;9.34;100.00
68594;BME280;55563;52.416;13.548;2022-12-26T07:04:22;100680.38;;;9.34;100.00
68594;BME280;55563;52.416;13.548;2022-12-26T07:06:32;100680.63;;;9.33;100.00
68594;BME280;55563;52.416;13.548;2022-12-26T07:08:33;100685.13;;;9.37;100.00
68594;BME280;55563;52.416;13.548;2022-12-26T07:10:34;100684.88;;;9.39;100.00
68594;BME280;55563;52.416;13.548;2022-12-26T07:12:36;100694.88;;;9.42;100.00
68594;BME280;55563;52.416;13.548;2022-12-26T07:14:37;100683.56;;;9.41;100.00
68594;BME280;55563;52.416;13.548;2022-12-26T07:16:39;100671.91;;;9.54;100.00
68594;BME280;55563;52.416;13.548;2022-12-26T07:18:40;100672.38;;;9.51;100.00
68594;BME280;55563;52.416;13.548;2022-12-26T07:20:41;100661.56;;;9.42;100.00
68594;BME280;55563;52.416;13.548;2022-12-26T07:22:41;100674.72;;;9.47;100.00
68594;BME280;55563;52.416;13.548;2022-12-26T07:24:42;100670.56;;;9.51;100.00
68594;BME280;55563;52.416;13.548;2022-12-26T07:26:44;100669.97;;;9.44;100.00
68594;BME280;55563;52.416;13.548;2022-12-26T07:28:45;100661.31;;;9.44;100.00
68594;BME280;55563;52.416;13.548;2022-12-26T07:30:47;100663.94;;;9.44;100.00
68594;BME280;55563;52.416;13.548;2022-12-26T07:32:48;100669.97;;;9.44;100.00
68594;BME280;55563;52.416;13.548;2022-12-26T07:34:49;100674.44;;;9.44;100.00
68594;BME280;55563;52.416;13.548;2022-12-26T07:36:49;100674.16;;;9.45;100.00
68594;BME280;55563;52.416;13.548;2022-12-26T07:38:50;100671.25;;;9.42;100.00
68594;BME280;55563;52.416;13.548;2022-12-26T07:40:54;100680.47;;;9.44;100.00
68594;BME280;55563;52.416;13.548;2022-12-26T07:42:54;100675.22;;;9.44;100.00
68594;BME280;55563;52.416;13.548;2022-12-26T07:44:55;100669.47;;;9.47;100.00
68594;BME280;55563;52.416;13.548;2022-12-26T07:46:57;100671.16;;;9.58;100.00
68594;BME280;55563;52.416;13.548;2022-12-26T07:48:58;100674.22;;;9.50;100.00
68594;BME280;55563;52.416;13.548;2022-12-26T07:51:01;100676.31;;;9.48;100.00
68594;BME280;55563;52.416;13.548;2022-12-26T07:53:02;100686.00;;;9.48;100.00
68594;BME280;55563;52.416;13.548;2022-12-26T07:55:03;100686.84;;;9.53;100.00
68594;BME280;55563;52.416;13.548;2022-12-26T07:57:04;100686.84;;;9.53;100.00
68594;BME280;55563;52.416;13.548;2022-12-26T07:59:04;100687.13;;;9.57;100.00
68594;BME280;55563;52.416;13.548;2022-12-26T08:01:05;100694.28;;;9.67;100.00
68594;BME280;55563;52.416;13.548;2022-12-26T08:03:08;100708.13;;;9.57;100.00
68594;BME280;55563;52.416;13.548;2022-12-26T08:05:08;100706.53;;;9.56;100.00
68594;BME280;55563;52.416;13.548;2022-12-26T08:07:09;100711.31;;;9.59;100.00
68594;BME280;55563;52.416;13.548;2022-12-26T08:09:12;100709.44;;;9.59;100.00
68594;BME280;55563;52.416;13.548;2022-12-26T08:11:21;100715.47;;;9.60;100.00
68594;BME280;55563;52.416;13.548;2022-12-26T08:13:23;100712.63;;;9.61;100.00
68594;BME280;55563;52.416;13.548;2022-12-26T08:15:23;100714.44;;;9.61;100.00
68594;BME280;55563;52.416;13.548;2022-12-26T08:17:24;100708.44;;;9.66;100.00
68594;BME280;55563;52.416;13.548;2022-12-26T08:19:25;100694.00;;;9.63;100.00
68594;BME280;55563;52.416;13.548;2022-12-26T08:21:26;100696.41;;;9.70;100.00
68594;BME280;55563;52.416;13.548;2022-12-26T08:23:27;100700.09;;;9.69;100.00
68594;BME280;55563;52.416;13.548;2022-12-26T08:25:28;100700.09;;;9.69;100.00
68594;BME280;55563;52.416;13.548;2022-12-26T08:27:28;100702.44;;;9.70;100.00
68594;BME280;55563;52.416;13.548;2022-12-26T08:29:30;100697.47;;;9.69;100.00
68594;BME280;55563;52.416;13.548;2022-12-26T08:31:30;100688.81;;;9.68;100.00
68594;BME280;55563;52.416;13.548;2022-12-26T08:33:31;100686.19;;;9.68;100.00
68594;BME280;55563;52.416;13.548;2022-12-26T08:35:33;100698.00;;;9.71;100.00
68594;BME280;55563;52.416;13.548;2022-12-26T08:37:34;100693.53;;;9.71;100.00
68594;BME280;55563;52.416;13.548;2022-12-26T08:39:35;100693.31;;;9.73;100.00
68594;BME280;55563;52.416;13.548;2022-12-26T08:41:36;100700.38;;;9.72;100.00
68594;BME280;55563;52.416;13.548;2022-12-26T08:43:37;100696.72;;;9.73;100.00
68594;BME280;55563;52.416;13.548;2022-12-26T08:45:37;100698.78;;;9.71;100.00
68594;BME280;55563;52.416;13.548;2022-12-26T08:47:38;100697.75;;;9.72;100.00
68594;BME280;55563;52.416;13.548;2022-12-26T08:49:39;100696.44;;;9.75;100.00
68594;BME280;55563;52.416;13.548;2022-12-26T08:51:39;100700.38;;;9.72;100.00
68594;BME280;55563;52.416;13.548;2022-12-26T08:53:40;100697.47;;;9.69;100.00
68594;BME280;55563;52.416;13.548;2022-12-26T08:55:41;100700.41;;;9.77;100.00
68594;BME280;55563;52.416;13.548;2022-12-26T08:57:42;100693.31;;;9.73;100.00
68594;BME280;55563;52.416;13.548;2022-12-26T08:59:43;100695.19;;;9.77;100.00
68594;BME280;55563;52.416;13.548;2022-12-26T09:01:43;100706.16;;;9.74;100.00
68594;BME280;55563;52.416;13.548;2022-12-26T09:03:45;100700.91;;;9.74;100.00
68594;BME280;55563;52.416;13.548;2022-12-26T09:05:46;100710.59;;;9.74;100.00
68594;BME280;55563;52.416;13.548;2022-12-26T09:07:47;100714.81;;;9.75;100.00
68594;BME280;55563;52.416;13.548;2022-12-26T09:09:47;100712.50;;;9.78;100.00
68594;BME280;55563;52.416;13.548;2022-12-26T09:11:48;100720.13;;;9.80;100.00
68594;BME280;55563;52.416;13.548;2022-12-26T09:13:49;100720.38;;;9.78;100.00
68594;BME280;55563;52.416;13.548;2022-12-26T09:15:49;100719.59;;;9.78;100.00
68594;BME280;55563;52.416;13.548;2022-12-26T09:17:50;100726.16;;;9.80;100.00
68594;BME280;55563;52.416;13.548;2022-12-26T09:19:51;100734.31;;;9.84;100.00
68594;BME280;55563;52.416;13.548;2022-12-26T09:21:52;100741.66;;;9.82;100.00
68594;BME280;55563;52.416;13.548;2022-12-26T09:24:15;100742.47;;;9.82;100.00
68594;BME280;55563;52.416;13.548;2022-12-26T09:26:18;100740.63;;;9.83;100.00
68594;BME280;55563;52.416;13.548;2022-12-26T09:28:19;100745.88;;;9.83;100.00
68594;BME280;55563;52.416;13.548;2022-12-26T09:30:21;100745.63;;;9.84;100.00
68594;BME280;55563;52.416;13.548;2022-12-26T09:32:22;100732.25;;;9.86;100.00
68594;BME280;55563;52.416;13.548;2022-12-26T09:34:22;100732.00;;;9.87;100.00
68594;BME280;55563;52.416;13.548;2022-12-26T09:36:25;100741.19;;;9.90;100.00
68594;BME280;55563;52.416;13.548;2022-12-26T09:38:26;100749.88;;;9.90;100.00
68594;BME280;55563;52.416;13.548;2022-12-26T09:40:32;100726.47;;;9.89;100.00
68594;BME280;55563;52.416;13.548;2022-12-26T09:43:23;100746.75;;;10.25;100.00
68594;BME280;55563;52.416;13.548;2022-12-26T09:45:41;100751.56;;;10.38;100.00
68594;BME280;55563;52.416;13.548;2022-12-26T09:50:00;100730.03;;;10.46;100.00
68594;BME280;55563;52.416;13.548;2022-12-26T09:52:10;100730.34;;;10.55;100.00
68594;BME280;55563;52.416;13.548;2022-12-26T09:54:18;100732.22;;;10.65;100.00
68594;BME280;55563;52.416;13.548;2022-12-26T09:56:23;100726.50;;;10.73;100.00
68594;BME280;55563;52.416;13.548;2022-12-26T09:58:29;100718.56;;;10.63;100.00
68594;BME280;55563;52.416;13.548;2022-12-26T10:00:38;100722.75;;;10.59;100.00
68594;BME280;55563;52.416;13.548;2022-12-26T10:02:47;100719.94;;;10.75;100.00
68594;BME280;55563;52.416;13.548;2022-12-26T10:04:50;100719.84;;;10.55;100.00
68594;BME280;55563;52.416;13.548;2022-12-26T10:07:09;100733.94;;;10.39;100.00
68594;BME280;55563;52.416;13.548;2022-12-26T10:14:03;100756.22;;;10.31;100.00
68594;BME280;55563;52.416;13.548;2022-12-26T10:16:15;100757.53;;;10.29;100.00
68594;BME280;55563;52.416;13.548;2022-12-26T10:18:25;100774.06;;;10.24;100.00
68594;BME280;55563;52.416;13.548;2022-12-26T10:25:31;100764.59;;;10.23;100.00
68594;BME280;55563;52.416;13.548;2022-12-26T10:27:38;100764.63;;;10.28;100.00
68594;BME280;55563;52.416;13.548;2022-12-26T10:29:47;100762.28;;;10.32;100.00
68594;BME280;55563;52.416;13.548;2022-12-26T10:31:55;100763.81;;;10.28;100.00
68594;BME280;55563;52.416;13.548;2022-12-26T10:34:49;100761.47;;;10.31;100.00
68594;BME280;55563;52.416;13.548;2022-12-26T10:36:50;100764.38;;;10.30;100.00
68594;BME280;55563;52.416;13.548;2022-12-26T10:38:57;100763.81;;;10.28;100.00
68594;BME280;55563;52.416;13.548;2022-12-26T10:41:03;100764.88;;;10.27;100.00
68594;BME280;55563;52.416;13.548;2022-12-26T10:43:29;100764.09;;;10.26;100.00
68594;BME280;55563;52.416;13.548;2022-12-26T10:47:49;100763.78;;;10.23;100.00
68594;BME280;55563;52.416;13.548;2022-12-26T10:49:51;100758.00;;;10.21;100.00
68594;BME280;55563;52.416;13.548;2022-12-26T10:51:54;100753.00;;;10.19;100.00
68594;BME280;55563;52.416;13.548;2022-12-26T10:53:56;100747.50;;;10.21;100.00
68594;BME280;55563;52.416;13.548;2022-12-26T10:55:59;100755.63;;;10.19;100.00
68594;BME280;55563;52.416;13.548;2022-12-26T10:58:28;100746.44;;;10.17;100.00
68594;BME280;55563;52.416;13.548;2022-12-26T11:00:30;100749.81;;;10.17;100.00
68594;BME280;55563;52.416;13.548;2022-12-26T11:02:31;100752.13;;;10.14;100.00
68594;BME280;55563;52.416;13.548;2022-12-26T11:05:02;100748.72;;;10.13;100.00
68594;BME280;55563;52.416;13.548;2022-12-26T11:07:07;100731.66;;;10.11;100.00
68594;BME280;55563;52.416;13.548;2022-12-26T11:09:33;100745.03;;;10.09;100.00
68594;BME280;55563;52.416;13.548;2022-12-26T11:11:35;100746.84;;;10.08;100.00
68594;BME280;55563;52.416;13.548;2022-12-26T11:13:56;100744.97;;;10.04;100.00
68594;BME280;55563;52.416;13.548;2022-12-26T11:15:58;100750.22;;;10.04;100.00
68594;BME280;55563;52.416;13.548;2022-12-26T11:18:16;100750.75;;;10.01;100.00
68594;BME280;55563;52.416;13.548;2022-12-26T11:22:28;100749.41;;;9.98;100.00
68594;BME280;55563;52.416;13.548;2022-12-26T11:24:29;100749.91;;;9.95;100.00
68594;BME280;55563;52.416;13.548;2022-12-26T11:26:30;100753.34;;;9.96;100.00
68594;BME280;55563;52.416;13.548;2022-12-26T11:28:34;100743.31;;;9.93;100.00
68594;BME280;55563;52.416;13.548;2022-12-26T11:30:37;100738.34;;;9.91;100.00
68594;BME280;55563;52.416;13.548;2022-12-26T11:32:39;100755.91;;;9.91;100.00
68594;BME280;55563;52.416;13.548;2022-12-26T11:34:44;100745.13;;;9.87;100.00
68594;BME280;55563;52.416;13.548;2022-12-26T11:36:48;100728.59;;;9.87;100.00
68594;BME280;55563;52.416;13.548;2022-12-26T11:38:55;100720.16;;;9.85;100.00